sensor_id;sensor_type;location;lat;lon;timestamp;temperature;humidity
30069;DHT22;16894;49.456;10.644;2022-11-20T00:00:54;0.80;99.90
30069;DHT22;16894;49.456;10.644;2022-11-20T00:03:20;0.80;99.90
30069;DHT22;16894;49.456;10.644;2022-11-20T00:05:45;0.70;99.90
30069;DHT22;16894;49.456;10.644;2022-11-20T00:08:12;0.70;99.90
30069;DHT22;16894;49.456;10.644;2022-11-20T00:10:38;0.70;99.90
30069;DHT22;16894;49.456;10.644;2022-11-20T00:13:04;0.70;99.90
30069;DHT22;16894;49.456;10.644;2022-11-20T00:15:30;0.70;99.90
30069;DHT22;16894;49.456;10.644;2022-11-20T00:17:55;0.70;99.90
30069;DHT22;16894;49.456;10.644;2022-11-20T00:20:21;0.80;99.90
30069;DHT22;16894;49.456;10.644;2022-11-20T00:22:47;0.80;99.90
30069;DHT22;16894;49.456;10.644;2022-11-20T00:25:13;0.80;99.90
30069;DHT22;16894;49.456;10.644;2022-11-20T00:27:38;0.80;99.90
30069;DHT22;16894;49.456;10.644;2022-11-20T00:30:05;0.90;99.90
30069;DHT22;16894;49.456;10.644;2022-11-20T00:32:31;0.70;99.90
30069;DHT22;16894;49.456;10.644;2022-11-20T00:34:57;0.70;99.90
30069;DHT22;16894;49.456;10.644;2022-11-20T00:37:22;0.70;99.90
30069;DHT22;16894;49.456;10.644;2022-11-20T00:39:48;0.80;99.90
30069;DHT22;16894;49.456;10.644;2022-11-20T00:42:13;0.90;99.90
30069;DHT22;16894;49.456;10.644;2022-11-20T00:44:39;0.80;99.90
30069;DHT22;16894;49.456;10.644;2022-11-20T00:47:05;0.90;99.90
30069;DHT22;16894;49.456;10.644;2022-11-20T00:49:30;0.90;99.90
30069;DHT22;16894;49.456;10.644;2022-11-20T00:51:56;0.80;99.90
30069;DHT22;16894;49.456;10.644;2022-11-20T00:54:22;0.80;99.90
30069;DHT22;16894;49.456;10.644;2022-11-20T00:56:47;0.80;99.90
30069;DHT22;16894;49.456;10.644;2022-11-20T00:59:13;0.80;99.90
30069;DHT22;16894;49.456;10.644;2022-11-20T01:01:38;0.90;99.90
30069;DHT22;16894;49.456;10.644;2022-11-20T01:04:05;0.90;99.90
30069;DHT22;16894;49.456;10.644;2022-11-20T01:06:31;0.90;99.90
30069;DHT22;16894;49.456;10.644;2022-11-20T01:09:01;0.90;99.90
30069;DHT22;16894;49.456;10.644;2022-11-20T01:11:32;0.90;99.90
30069;DHT22;16894;49.456;10.644;2022-11-20T01:13:59;0.90;99.90
30069;DHT22;16894;49.456;10.644;2022-11-20T01:16:28;0.90;99.90
30069;DHT22;16894;49.456;10.644;2022-11-20T01:18:57;0.90;99.90
30069;DHT22;16894;49.456;10.644;2022-11-20T01:21:25;0.90;99.90
30069;DHT22;16894;49.456;10.644;2022-11-20T01:23:52;0.80;99.90
30069;DHT22;16894;49.456;10.644;2022-11-20T01:26:20;0.80;99.90
30069;DHT22;16894;49.456;10.644;2022-11-20T01:28:46;0.70;99.90
30069;DHT22;16894;49.456;10.644;2022-11-20T01:33:42;0.70;99.90
30069;DHT22;16894;49.456;10.644;2022-11-20T01:36:09;0.70;99.90
30069;DHT22;16894;49.456;10.644;2022-11-20T01:38:35;0.70;99.90
30069;DHT22;16894;49.456;10.644;2022-11-20T01:41:01;0.70;99.90
30069;DHT22;16894;49.456;10.644;2022-11-20T01:43:26;0.70;99.90
30069;DHT22;16894;49.456;10.644;2022-11-20T01:46:16;0.80;99.90
30069;DHT22;16894;49.456;10.644;2022-11-20T01:51:32;0.80;99.90
30069;DHT22;16894;49.456;10.644;2022-11-20T01:54:01;0.80;99.90
30069;DHT22;16894;49.456;10.644;2022-11-20T01:56:30;0.70;99.90
30069;DHT22;16894;49.456;10.644;2022-11-20T01:58:58;0.80;99.90
30069;DHT22;16894;49.456;10.644;2022-11-20T02:01:26;0.80;99.90
30069;DHT22;16894;49.456;10.644;2022-11-20T02:03:52;0.80;99.90
30069;DHT22;16894;49.456;10.644;2022-11-20T02:06:27;0.80;99.90
30069;DHT22;16894;49.456;10.644;2022-11-20T02:08:54;0.70;99.90
30069;DHT22;16894;49.456;10.644;2022-11-20T02:11:20;0.80;99.90
30069;DHT22;16894;49.456;10.644;2022-11-20T02:13:46;0.70;99.90
30069;DHT22;16894;49.456;10.644;2022-11-20T02:16:17;0.70;99.90
30069;DHT22;16894;49.456;10.644;2022-11-20T02:18:45;0.70;99.90
30069;DHT22;16894;49.456;10.644;2022-11-20T02:21:40;0.70;99.90
30069;DHT22;16894;49.456;10.644;2022-11-20T02:24:21;0.80;99.90
30069;DHT22;16894;49.456;10.644;2022-11-20T02:27:07;0.80;99.90
30069;DHT22;16894;49.456;10.644;2022-11-20T02:29:50;0.80;99.90
30069;DHT22;16894;49.456;10.644;2022-11-20T02:32:21;0.80;99.90
30069;DHT22;16894;49.456;10.644;2022-11-20T02:34:47;0.80;99.90
30069;DHT22;16894;49.456;10.644;2022-11-20T02:37:12;0.80;99.90
30069;DHT22;16894;49.456;10.644;2022-11-20T02:39:40;0.80;99.90
30069;DHT22;16894;49.456;10.644;2022-11-20T02:42:06;0.80;99.90
30069;DHT22;16894;49.456;10.644;2022-11-20T02:44:31;0.90;99.90
30069;DHT22;16894;49.456;10.644;2022-11-20T02:46:57;0.90;99.90
30069;DHT22;16894;49.456;10.644;2022-11-20T02:49:24;0.80;99.90
30069;DHT22;16894;49.456;10.644;2022-11-20T02:51:50;0.90;99.90
30069;DHT22;16894;49.456;10.644;2022-11-20T02:54:15;0.80;99.90
30069;DHT22;16894;49.456;10.644;2022-11-20T02:56:41;0.80;99.90
30069;DHT22;16894;49.456;10.644;2022-11-20T02:59:07;0.80;99.90
30069;DHT22;16894;49.456;10.644;2022-11-20T03:01:33;0.90;99.90
30069;DHT22;16894;49.456;10.644;2022-11-20T03:03:58;0.90;99.90
30069;DHT22;16894;49.456;10.644;2022-11-20T03:06:24;0.90;99.90
30069;DHT22;16894;49.456;10.644;2022-11-20T03:08:50;0.90;99.90
30069;DHT22;16894;49.456;10.644;2022-11-20T03:11:16;1.10;99.90
30069;DHT22;16894;49.456;10.644;2022-11-20T03:13:42;1.00;99.90
30069;DHT22;16894;49.456;10.644;2022-11-20T03:16:16;1.00;99.90
30069;DHT22;16894;49.456;10.644;2022-11-20T03:18:43;1.10;99.90
30069;DHT22;16894;49.456;10.644;2022-11-20T03:21:10;1.00;99.90
30069;DHT22;16894;49.456;10.644;2022-11-20T03:23:37;0.90;99.90
30069;DHT22;16894;49.456;10.644;2022-11-20T03:28:37;0.90;99.90
30069;DHT22;16894;49.456;10.644;2022-11-20T03:31:14;0.90;99.90
30069;DHT22;16894;49.456;10.644;2022-11-20T03:33:41;0.90;99.90
30069;DHT22;16894;49.456;10.644;2022-11-20T03:36:14;0.90;99.90
30069;DHT22;16894;49.456;10.644;2022-11-20T03:38:41;0.90;99.90
30069;DHT22;16894;49.456;10.644;2022-11-20T03:41:13;0.90;99.90
30069;DHT22;16894;49.456;10.644;2022-11-20T03:43:38;0.80;99.90
30069;DHT22;16894;49.456;10.644;2022-11-20T03:46:05;0.80;99.90
30069;DHT22;16894;49.456;10.644;2022-11-20T03:48:31;0.80;99.90
30069;DHT22;16894;49.456;10.644;2022-11-20T03:51:11;0.80;99.90
30069;DHT22;16894;49.456;10.644;2022-11-20T03:53:37;0.80;99.90
30069;DHT22;16894;49.456;10.644;2022-11-20T03:56:03;0.80;99.90
30069;DHT22;16894;49.456;10.644;2022-11-20T03:58:29;0.80;99.90
30069;DHT22;16894;49.456;10.644;2022-11-20T04:00:54;0.90;99.90
30069;DHT22;16894;49.456;10.644;2022-11-20T04:03:20;0.80;99.90
30069;DHT22;16894;49.456;10.644;2022-11-20T04:05:46;0.80;99.90
30069;DHT22;16894;49.456;10.644;2022-11-20T04:08:11;0.80;99.90
30069;DHT22;16894;49.456;10.644;2022-11-20T04:10:37;0.80;99.90
30069;DHT22;16894;49.456;10.644;2022-11-20T04:13:03;0.80;99.90
30069;DHT22;16894;49.456;10.644;2022-11-20T04:15:28;0.80;99.90
30069;DHT22;16894;49.456;10.644;2022-11-20T04:17:54;0.90;99.90
30069;DHT22;16894;49.456;10.644;2022-11-20T04:20:20;0.90;99.90
30069;DHT22;16894;49.456;10.644;2022-11-20T04:22:45;0.90;99.90
30069;DHT22;16894;49.456;10.644;2022-11-20T04:25:11;0.90;99.90
30069;DHT22;16894;49.456;10.644;2022-11-20T04:27:37;0.90;99.90
30069;DHT22;16894;49.456;10.644;2022-11-20T04:30:03;0.90;99.90
30069;DHT22;16894;49.456;10.644;2022-11-20T04:32:28;0.90;99.90
30069;DHT22;16894;49.456;10.644;2022-11-20T04:34:54;0.90;99.90
30069;DHT22;16894;49.456;10.644;2022-11-20T04:37:19;0.80;99.90
30069;DHT22;16894;49.456;10.644;2022-11-20T04:39:45;0.90;99.90
30069;DHT22;16894;49.456;10.644;2022-11-20T04:42:11;0.90;99.90
30069;DHT22;16894;49.456;10.644;2022-11-20T04:44:55;0.90;99.90
30069;DHT22;16894;49.456;10.644;2022-11-20T04:47:21;0.90;99.90
30069;DHT22;16894;49.456;10.644;2022-11-20T04:49:47;0.90;99.90
30069;DHT22;16894;49.456;10.644;2022-11-20T04:52:12;0.90;99.90
30069;DHT22;16894;49.456;10.644;2022-11-20T04:54:38;0.90;99.90
30069;DHT22;16894;49.456;10.644;2022-11-20T04:57:03;1.00;99.90
30069;DHT22;16894;49.456;10.644;2022-11-20T04:59:29;0.90;99.90
30069;DHT22;16894;49.456;10.644;2022-11-20T05:01:55;1.00;99.90
30069;DHT22;16894;49.456;10.644;2022-11-20T05:04:20;1.00;99.90
30069;DHT22;16894;49.456;10.644;2022-11-20T05:06:46;1.00;99.90
30069;DHT22;16894;49.456;10.644;2022-11-20T05:09:12;1.00;99.90
30069;DHT22;16894;49.456;10.644;2022-11-20T05:11:38;1.00;99.90
30069;DHT22;16894;49.456;10.644;2022-11-20T05:14:04;1.00;99.90
30069;DHT22;16894;49.456;10.644;2022-11-20T05:16:29;1.00;99.90
30069;DHT22;16894;49.456;10.644;2022-11-20T05:18:55;1.00;99.90
30069;DHT22;16894;49.456;10.644;2022-11-20T05:21:31;1.00;99.90
30069;DHT22;16894;49.456;10.644;2022-11-20T05:23:57;1.00;99.90
30069;DHT22;16894;49.456;10.644;2022-11-20T05:26:23;1.10;99.90
30069;DHT22;16894;49.456;10.644;2022-11-20T05:28:49;1.10;99.90
30069;DHT22;16894;49.456;10.644;2022-11-20T05:31:18;1.10;99.90
30069;DHT22;16894;49.456;10.644;2022-11-20T05:33:44;1.10;99.90
30069;DHT22;16894;49.456;10.644;2022-11-20T05:36:11;1.10;99.90
30069;DHT22;16894;49.456;10.644;2022-11-20T05:38:37;1.20;99.90
30069;DHT22;16894;49.456;10.644;2022-11-20T05:41:13;1.10;99.90
30069;DHT22;16894;49.456;10.644;2022-11-20T05:43:41;1.20;99.90
30069;DHT22;16894;49.456;10.644;2022-11-20T05:46:09;1.20;99.90
30069;DHT22;16894;49.456;10.644;2022-11-20T05:48:36;1.10;99.90
30069;DHT22;16894;49.456;10.644;2022-11-20T05:51:03;1.00;99.90
30069;DHT22;16894;49.456;10.644;2022-11-20T05:53:29;1.00;99.90
30069;DHT22;16894;49.456;10.644;2022-11-20T05:56:10;1.00;99.90
30069;DHT22;16894;49.456;10.644;2022-11-20T05:58:36;1.00;99.90
30069;DHT22;16894;49.456;10.644;2022-11-20T06:03:43;1.00;99.90
30069;DHT22;16894;49.456;10.644;2022-11-20T06:06:11;1.00;99.90
30069;DHT22;16894;49.456;10.644;2022-11-20T06:08:37;1.00;99.90
30069;DHT22;16894;49.456;10.644;2022-11-20T06:11:05;1.00;99.90
30069;DHT22;16894;49.456;10.644;2022-11-20T06:13:31;1.10;99.90
30069;DHT22;16894;49.456;10.644;2022-11-20T06:15:56;1.00;99.90
30069;DHT22;16894;49.456;10.644;2022-11-20T06:18:22;1.00;99.90
30069;DHT22;16894;49.456;10.644;2022-11-20T06:20:47;1.10;99.90
30069;DHT22;16894;49.456;10.644;2022-11-20T06:23:13;1.10;99.90
30069;DHT22;16894;49.456;10.644;2022-11-20T06:25:40;1.10;99.90
30069;DHT22;16894;49.456;10.644;2022-11-20T06:28:06;1.10;99.90
30069;DHT22;16894;49.456;10.644;2022-11-20T06:30:32;1.10;99.90
30069;DHT22;16894;49.456;10.644;2022-11-20T06:32:58;1.10;99.90
30069;DHT22;16894;49.456;10.644;2022-11-20T06:35:23;1.10;99.90
30069;DHT22;16894;49.456;10.644;2022-11-20T06:37:49;1.10;99.90
30069;DHT22;16894;49.456;10.644;2022-11-20T06:40:15;1.20;99.90
30069;DHT22;16894;49.456;10.644;2022-11-20T06:42:40;1.20;99.90
30069;DHT22;16894;49.456;10.644;2022-11-20T06:45:06;1.10;99.90
30069;DHT22;16894;49.456;10.644;2022-11-20T06:47:32;1.20;99.90
30069;DHT22;16894;49.456;10.644;2022-11-20T06:49:58;1.20;99.90
30069;DHT22;16894;49.456;10.644;2022-11-20T06:52:24;1.20;99.90
30069;DHT22;16894;49.456;10.644;2022-11-20T06:54:49;1.20;99.90
30069;DHT22;16894;49.456;10.644;2022-11-20T06:57:15;1.20;99.90
30069;DHT22;16894;49.456;10.644;2022-11-20T06:59:41;1.20;99.90
30069;DHT22;16894;49.456;10.644;2022-11-20T07:02:10;1.20;99.90
30069;DHT22;16894;49.456;10.644;2022-11-20T07:04:36;1.20;99.90
30069;DHT22;16894;49.456;10.644;2022-11-20T07:07:02;1.20;99.90
30069;DHT22;16894;49.456;10.644;2022-11-20T07:09:27;1.30;99.90
30069;DHT22;16894;49.456;10.644;2022-11-20T07:11:53;1.30;99.90
30069;DHT22;16894;49.456;10.644;2022-11-20T07:14:19;1.30;99.90
30069;DHT22;16894;49.456;10.644;2022-11-20T07:16:44;1.30;99.90
30069;DHT22;16894;49.456;10.644;2022-11-20T07:19:10;1.30;99.90
30069;DHT22;16894;49.456;10.644;2022-11-20T07:21:35;1.30;99.90
30069;DHT22;16894;49.456;10.644;2022-11-20T07:24:02;1.40;99.90
30069;DHT22;16894;49.456;10.644;2022-11-20T07:26:27;1.40;99.90
30069;DHT22;16894;49.456;10.644;2022-11-20T07:28:53;1.40;99.90
30069;DHT22;16894;49.456;10.644;2022-11-20T07:31:19;1.40;99.90
30069;DHT22;16894;49.456;10.644;2022-11-20T07:33:45;1.30;99.90
30069;DHT22;16894;49.456;10.644;2022-11-20T07:36:10;1.40;99.90
30069;DHT22;16894;49.456;10.644;2022-11-20T07:38:37;1.50;99.90
30069;DHT22;16894;49.456;10.644;2022-11-20T07:41:03;1.60;99.90
30069;DHT22;16894;49.456;10.644;2022-11-20T07:43:28;1.60;99.90
30069;DHT22;16894;49.456;10.644;2022-11-20T07:45:57;1.50;99.90
30069;DHT22;16894;49.456;10.644;2022-11-20T07:48:24;1.50;99.90
30069;DHT22;16894;49.456;10.644;2022-11-20T07:50:53;1.50;99.90
30069;DHT22;16894;49.456;10.644;2022-11-20T07:53:18;1.50;99.90
30069;DHT22;16894;49.456;10.644;2022-11-20T07:55:46;1.60;99.90
30069;DHT22;16894;49.456;10.644;2022-11-20T07:58:12;1.50;99.90
30069;DHT22;16894;49.456;10.644;2022-11-20T08:00:37;1.60;99.90
30069;DHT22;16894;49.456;10.644;2022-11-20T08:03:06;1.60;99.90
30069;DHT22;16894;49.456;10.644;2022-11-20T08:05:32;1.70;99.90
30069;DHT22;16894;49.456;10.644;2022-11-20T08:07:58;1.70;99.90
30069;DHT22;16894;49.456;10.644;2022-11-20T08:10:24;1.70;99.90
30069;DHT22;16894;49.456;10.644;2022-11-20T08:12:51;1.70;99.90
30069;DHT22;16894;49.456;10.644;2022-11-20T08:15:37;1.70;99.90
30069;DHT22;16894;49.456;10.644;2022-11-20T08:18:06;1.80;99.90
30069;DHT22;16894;49.456;10.644;2022-11-20T08:20:33;1.90;99.90
30069;DHT22;16894;49.456;10.644;2022-11-20T08:22:59;1.90;99.90
30069;DHT22;16894;49.456;10.644;2022-11-20T08:25:26;1.90;99.90
30069;DHT22;16894;49.456;10.644;2022-11-20T08:27:52;1.90;99.90
30069;DHT22;16894;49.456;10.644;2022-11-20T08:30:18;2.00;99.90
30069;DHT22;16894;49.456;10.644;2022-11-20T08:32:43;2.00;99.90
30069;DHT22;16894;49.456;10.644;2022-11-20T08:35:09;2.10;99.90
30069;DHT22;16894;49.456;10.644;2022-11-20T08:37:34;1.90;99.90
30069;DHT22;16894;49.456;10.644;2022-11-20T08:40:00;1.90;99.90
30069;DHT22;16894;49.456;10.644;2022-11-20T08:42:26;1.90;99.90
30069;DHT22;16894;49.456;10.644;2022-11-20T08:44:51;1.90;99.90
30069;DHT22;16894;49.456;10.644;2022-11-20T08:47:17;1.90;99.90
30069;DHT22;16894;49.456;10.644;2022-11-20T08:49:42;2.00;99.90
30069;DHT22;16894;49.456;10.644;2022-11-20T08:52:08;1.90;99.90
30069;DHT22;16894;49.456;10.644;2022-11-20T08:54:33;2.00;99.90
30069;DHT22;16894;49.456;10.644;2022-11-20T08:56:59;2.00;99.90
30069;DHT22;16894;49.456;10.644;2022-11-20T08:59:25;2.00;99.90
30069;DHT22;16894;49.456;10.644;2022-11-20T09:01:50;1.90;99.90
30069;DHT22;16894;49.456;10.644;2022-11-20T09:04:16;2.00;99.90
30069;DHT22;16894;49.456;10.644;2022-11-20T09:06:41;2.00;99.90
30069;DHT22;16894;49.456;10.644;2022-11-20T09:09:07;2.00;99.90
30069;DHT22;16894;49.456;10.644;2022-11-20T09:11:34;1.90;99.90
30069;DHT22;16894;49.456;10.644;2022-11-20T09:14:00;1.90;99.90
30069;DHT22;16894;49.456;10.644;2022-11-20T09:16:28;2.00;99.90
30069;DHT22;16894;49.456;10.644;2022-11-20T09:18:53;1.90;99.90
30069;DHT22;16894;49.456;10.644;2022-11-20T09:21:19;1.90;99.90
30069;DHT22;16894;49.456;10.644;2022-11-20T09:23:44;1.90;99.90
30069;DHT22;16894;49.456;10.644;2022-11-20T09:26:11;1.90;99.90
30069;DHT22;16894;49.456;10.644;2022-11-20T09:28:37;1.80;99.90
30069;DHT22;16894;49.456;10.644;2022-11-20T09:31:07;1.90;99.90
30069;DHT22;16894;49.456;10.644;2022-11-20T09:33:33;1.90;99.90
30069;DHT22;16894;49.456;10.644;2022-11-20T09:35:59;1.90;99.90
30069;DHT22;16894;49.456;10.644;2022-11-20T09:38:24;1.90;99.90
30069;DHT22;16894;49.456;10.644;2022-11-20T09:40:58;1.90;99.90
30069;DHT22;16894;49.456;10.644;2022-11-20T09:46:18;1.90;99.90
30069;DHT22;16894;49.456;10.644;2022-11-20T09:54:38;2.00;99.90
30069;DHT22;16894;49.456;10.644;2022-11-20T09:57:14;2.00;99.90
30069;DHT22;16894;49.456;10.644;2022-11-20T09:59:45;2.10;99.90
30069;DHT22;16894;49.456;10.644;2022-11-20T10:07:43;2.10;99.90
30069;DHT22;16894;49.456;10.644;2022-11-20T10:18:28;2.40;99.90
30069;DHT22;16894;49.456;10.644;2022-11-20T10:21:21;2.40;99.90
30069;DHT22;16894;49.456;10.644;2022-11-20T10:31:43;2.20;99.90
30069;DHT22;16894;49.456;10.644;2022-11-20T10:37:09;2.20;99.90
30069;DHT22;16894;49.456;10.644;2022-11-20T10:40:01;2.30;99.90
30069;DHT22;16894;49.456;10.644;2022-11-20T10:43:36;2.30;99.90
30069;DHT22;16894;49.456;10.644;2022-11-20T10:46:20;2.30;99.90
30069;DHT22;16894;49.456;10.644;2022-11-20T10:48:48;2.20;99.90
30069;DHT22;16894;49.456;10.644;2022-11-20T10:54:22;2.30;99.90
30069;DHT22;16894;49.456;10.644;2022-11-20T10:56:52;2.40;99.90
30069;DHT22;16894;49.456;10.644;2022-11-20T11:02:24;2.50;99.90
30069;DHT22;16894;49.456;10.644;2022-11-20T11:04:51;2.50;99.90
30069;DHT22;16894;49.456;10.644;2022-11-20T11:07:24;2.50;99.90
30069;DHT22;16894;49.456;10.644;2022-11-20T11:09:54;2.50;99.90
30069;DHT22;16894;49.456;10.644;2022-11-20T11:12:29;2.60;99.90
30069;DHT22;16894;49.456;10.644;2022-11-20T11:14:56;2.70;99.90
30069;DHT22;16894;49.456;10.644;2022-11-20T11:17:28;2.80;99.90
30069;DHT22;16894;49.456;10.644;2022-11-20T11:20:14;2.90;99.90
30069;DHT22;16894;49.456;10.644;2022-11-20T11:22:59;3.00;99.90
30069;DHT22;16894;49.456;10.644;2022-11-20T11:25:36;3.10;99.90
30069;DHT22;16894;49.456;10.644;2022-11-20T11:28:19;3.10;99.90
30069;DHT22;16894;49.456;10.644;2022-11-20T11:30:46;3.10;99.90
30069;DHT22;16894;49.456;10.644;2022-11-20T11:33:31;3.00;99.90
30069;DHT22;16894;49.456;10.644;2022-11-20T11:36:04;3.10;99.90
30069;DHT22;16894;49.456;10.644;2022-11-20T11:38:41;3.20;99.90
30069;DHT22;16894;49.456;10.644;2022-11-20T11:41:21;3.30;99.90
30069;DHT22;16894;49.456;10.644;2022-11-20T11:43:53;3.40;99.90
30069;DHT22;16894;49.456;10.644;2022-11-20T11:46:40;3.50;99.90
30069;DHT22;16894;49.456;10.644;2022-11-20T11:52:08;3.70;99.90
30069;DHT22;16894;49.456;10.644;2022-11-20T11:57:24;3.80;99.90
30069;DHT22;16894;49.456;10.644;2022-11-20T12:00:09;3.80;99.90
30069;DHT22;16894;49.456;10.644;2022-11-20T12:05:26;3.60;99.90
30069;DHT22;16894;49.456;10.644;2022-11-20T12:15:58;3.70;99.90
30069;DHT22;16894;49.456;10.644;2022-11-20T12:18:24;3.70;99.90
30069;DHT22;16894;49.456;10.644;2022-11-20T12:26:19;3.70;99.90
30069;DHT22;16894;49.456;10.644;2022-11-20T12:29:13;3.70;99.90
30069;DHT22;16894;49.456;10.644;2022-11-20T12:34:31;3.90;99.90
30069;DHT22;16894;49.456;10.644;2022-11-20T12:40:01;3.90;99.90
30069;DHT22;16894;49.456;10.644;2022-11-20T12:42:42;3.90;99.90
30069;DHT22;16894;49.456;10.644;2022-11-20T12:46:05;3.80;99.90
30069;DHT22;16894;49.456;10.644;2022-11-20T12:49:23;3.80;99.90
30069;DHT22;16894;49.456;10.644;2022-11-20T12:56:56;3.50;99.90
30069;DHT22;16894;49.456;10.644;2022-11-20T13:02:15;3.50;99.90
30069;DHT22;16894;49.456;10.644;2022-11-20T13:05:05;3.50;99.90
30069;DHT22;16894;49.456;10.644;2022-11-20T13:07:35;3.60;99.90
30069;DHT22;16894;49.456;10.644;2022-11-20T13:10:00;3.60;99.90
30069;DHT22;16894;49.456;10.644;2022-11-20T13:12:57;3.60;99.90
30069;DHT22;16894;49.456;10.644;2022-11-20T13:18:01;3.50;99.90
30069;DHT22;16894;49.456;10.644;2022-11-20T13:20:29;3.40;99.90
30069;DHT22;16894;49.456;10.644;2022-11-20T13:22:56;3.40;99.90
30069;DHT22;16894;49.456;10.644;2022-11-20T13:25:38;3.40;99.90
30069;DHT22;16894;49.456;10.644;2022-11-20T13:28:28;3.50;99.90
30069;DHT22;16894;49.456;10.644;2022-11-20T13:30:55;3.50;99.90
30069;DHT22;16894;49.456;10.644;2022-11-20T13:33:28;3.50;99.90
30069;DHT22;16894;49.456;10.644;2022-11-20T13:36:06;3.50;99.90
30069;DHT22;16894;49.456;10.644;2022-11-20T13:38:50;3.50;99.90
30069;DHT22;16894;49.456;10.644;2022-11-20T13:41:36;3.50;99.90
30069;DHT22;16894;49.456;10.644;2022-11-20T13:44:14;3.50;99.90
30069;DHT22;16894;49.456;10.644;2022-11-20T13:46:47;3.50;99.90
30069;DHT22;16894;49.456;10.644;2022-11-20T13:51:50;3.50;99.90
30069;DHT22;16894;49.456;10.644;2022-11-20T14:00:15;3.50;99.90
30069;DHT22;16894;49.456;10.644;2022-11-20T14:02:43;3.50;99.90
30069;DHT22;16894;49.456;10.644;2022-11-20T14:05:20;3.50;99.90
30069;DHT22;16894;49.456;10.644;2022-11-20T14:07:47;3.50;99.90
30069;DHT22;16894;49.456;10.644;2022-11-20T14:10:24;3.50;99.90
30069;DHT22;16894;49.456;10.644;2022-11-20T14:12:50;3.50;99.90
30069;DHT22;16894;49.456;10.644;2022-11-20T14:15:34;3.60;99.90
30069;DHT22;16894;49.456;10.644;2022-11-20T14:18:14;3.60;99.90
30069;DHT22;16894;49.456;10.644;2022-11-20T14:20:42;3.60;99.90
30069;DHT22;16894;49.456;10.644;2022-11-20T14:23:09;3.50;99.90
30069;DHT22;16894;49.456;10.644;2022-11-20T14:25:35;3.50;99.90
30069;DHT22;16894;49.456;10.644;2022-11-20T14:28:02;3.60;99.90
30069;DHT22;16894;49.456;10.644;2022-11-20T14:30:43;3.50;99.90
30069;DHT22;16894;49.456;10.644;2022-11-20T14:33:11;3.60;99.90
30069;DHT22;16894;49.456;10.644;2022-11-20T14:35:44;3.50;99.90
30069;DHT22;16894;49.456;10.644;2022-11-20T14:38:13;3.50;99.90
30069;DHT22;16894;49.456;10.644;2022-11-20T14:40:40;3.60;99.90
30069;DHT22;16894;49.456;10.644;2022-11-20T14:43:17;3.60;99.90
30069;DHT22;16894;49.456;10.644;2022-11-20T14:45:48;3.60;99.90
30069;DHT22;16894;49.456;10.644;2022-11-20T14:48:16;3.50;99.90
30069;DHT22;16894;49.456;10.644;2022-11-20T14:50:42;3.60;99.90
30069;DHT22;16894;49.456;10.644;2022-11-20T14:53:08;3.60;99.90
30069;DHT22;16894;49.456;10.644;2022-11-20T14:55:35;3.60;99.90
30069;DHT22;16894;49.456;10.644;2022-11-20T14:58:22;3.60;99.90
30069;DHT22;16894;49.456;10.644;2022-11-20T15:01:04;3.60;99.90
30069;DHT22;16894;49.456;10.644;2022-11-20T15:03:33;3.60;99.90
30069;DHT22;16894;49.456;10.644;2022-11-20T15:06:00;3.60;99.90
30069;DHT22;16894;49.456;10.644;2022-11-20T15:08:25;3.50;99.90
30069;DHT22;16894;49.456;10.644;2022-11-20T15:10:52;3.50;99.90
30069;DHT22;16894;49.456;10.644;2022-11-20T15:15:51;3.30;99.90
30069;DHT22;16894;49.456;10.644;2022-11-20T15:18:43;3.30;99.90
30069;DHT22;16894;49.456;10.644;2022-11-20T15:21:15;3.30;99.90
30069;DHT22;16894;49.456;10.644;2022-11-20T15:23:42;3.30;99.90
30069;DHT22;16894;49.456;10.644;2022-11-20T15:26:08;3.40;99.90
30069;DHT22;16894;49.456;10.644;2022-11-20T15:28:40;3.40;99.90
30069;DHT22;16894;49.456;10.644;2022-11-20T15:31:09;3.50;99.90
30069;DHT22;16894;49.456;10.644;2022-11-20T15:33:34;3.50;99.90
30069;DHT22;16894;49.456;10.644;2022-11-20T15:36:00;3.50;99.90
30069;DHT22;16894;49.456;10.644;2022-11-20T15:38:26;3.50;99.90
30069;DHT22;16894;49.456;10.644;2022-11-20T15:40:51;3.40;99.90
30069;DHT22;16894;49.456;10.644;2022-11-20T15:43:17;3.40;99.90
30069;DHT22;16894;49.456;10.644;2022-11-20T15:45:45;3.40;99.90
30069;DHT22;16894;49.456;10.644;2022-11-20T15:48:18;3.30;99.90
30069;DHT22;16894;49.456;10.644;2022-11-20T15:50:59;3.20;99.90
30069;DHT22;16894;49.456;10.644;2022-11-20T15:53:27;3.10;99.90
30069;DHT22;16894;49.456;10.644;2022-11-20T15:55:53;3.10;99.90
30069;DHT22;16894;49.456;10.644;2022-11-20T15:58:19;3.10;99.90
30069;DHT22;16894;49.456;10.644;2022-11-20T16:00:46;3.10;99.90
30069;DHT22;16894;49.456;10.644;2022-11-20T16:03:12;3.10;99.90
30069;DHT22;16894;49.456;10.644;2022-11-20T16:05:38;3.10;99.90
30069;DHT22;16894;49.456;10.644;2022-11-20T16:08:04;3.00;99.90
30069;DHT22;16894;49.456;10.644;2022-11-20T16:10:30;3.00;99.90
30069;DHT22;16894;49.456;10.644;2022-11-20T16:12:55;2.80;99.90
30069;DHT22;16894;49.456;10.644;2022-11-20T16:15:40;2.80;99.90
30069;DHT22;16894;49.456;10.644;2022-11-20T16:18:17;2.70;99.90
30069;DHT22;16894;49.456;10.644;2022-11-20T16:20:43;2.70;99.90
30069;DHT22;16894;49.456;10.644;2022-11-20T16:23:09;2.70;99.90
30069;DHT22;16894;49.456;10.644;2022-11-20T16:25:35;2.70;99.90
30069;DHT22;16894;49.456;10.644;2022-11-20T16:28:00;2.70;99.90
30069;DHT22;16894;49.456;10.644;2022-11-20T16:30:26;2.70;99.90
30069;DHT22;16894;49.456;10.644;2022-11-20T16:32:52;2.60;99.90
30069;DHT22;16894;49.456;10.644;2022-11-20T16:35:18;2.60;99.90
30069;DHT22;16894;49.456;10.644;2022-11-20T16:37:43;2.60;99.90
30069;DHT22;16894;49.456;10.644;2022-11-20T16:40:10;2.50;99.90
30069;DHT22;16894;49.456;10.644;2022-11-20T16:42:36;2.50;99.90
30069;DHT22;16894;49.456;10.644;2022-11-20T16:45:03;2.60;99.90
30069;DHT22;16894;49.456;10.644;2022-11-20T16:47:33;2.60;99.90
30069;DHT22;16894;49.456;10.644;2022-11-20T16:50:00;2.70;99.90
30069;DHT22;16894;49.456;10.644;2022-11-20T16:52:25;2.70;99.90
30069;DHT22;16894;49.456;10.644;2022-11-20T16:54:51;2.70;99.90
30069;DHT22;16894;49.456;10.644;2022-11-20T16:57:16;2.60;99.90
30069;DHT22;16894;49.456;10.644;2022-11-20T16:59:42;2.50;99.90
30069;DHT22;16894;49.456;10.644;2022-11-20T17:02:09;2.50;99.90
30069;DHT22;16894;49.456;10.644;2022-11-20T17:04:35;2.40;99.90
30069;DHT22;16894;49.456;10.644;2022-11-20T17:07:00;2.40;99.90
30069;DHT22;16894;49.456;10.644;2022-11-20T17:09:27;2.30;99.90
30069;DHT22;16894;49.456;10.644;2022-11-20T17:11:52;2.20;99.90
30069;DHT22;16894;49.456;10.644;2022-11-20T17:14:18;2.10;99.90
30069;DHT22;16894;49.456;10.644;2022-11-20T17:16:44;2.10;99.90
30069;DHT22;16894;49.456;10.644;2022-11-20T17:19:10;2.20;99.90
30069;DHT22;16894;49.456;10.644;2022-11-20T17:21:36;2.10;99.90